KHLB/HLB METAR and TAF weather

Enter ICAO airport designator
Station Type Date Time Source
KHLB METAR 2019/07/17 18:35 UTC NOAA

KHLB 171835Z AUTO 00000KT 10SM SCT023 SCT032 BKN046 29/24 A2997 RMK A01


Station Type Date Time Source
KHLB Decoded METAR 2019/07/17 18:35 UTC NOAA

Station name not available
Jul 17, 2019 - 02:35 PM EDT / 2019.07.17 1835 UTC
Wind: Calm:0
Visibility: 10 mile(s):0
Sky conditions: mostly cloudy
Temperature: 84 F (29 C)
Dew Point: 75 F (24 C)
Relative Humidity: 74%
Pressure (altimeter): 29.97 in. Hg (1014 hPa)
ob: KHLB 171835Z AUTO 00000KT 10SM SCT023 SCT032 BKN046 29/24 A2997 RMK A01
cycle: 18

Station Type Date Time Source
KHLB TAF UTC NOAA

Error!

Example: see airport list